sensor_id;sensor_type;location;lat;lon;timestamp;pressure;altitude;pressure_sealevel;temperature;humidity
11172;BME280;5642;50.830;12.082;2023-03-20T00:02:18;99447.28;;;13.00;42.98
11172;BME280;5642;50.830;12.082;2023-03-20T00:04:46;99424.16;;;12.86;42.99
11172;BME280;5642;50.830;12.082;2023-03-20T00:07:13;99437.84;;;12.94;43.17
11172;BME280;5642;50.830;12.082;2023-03-20T00:09:41;99511.75;;;13.32;42.94
11172;BME280;5642;50.830;12.082;2023-03-20T00:12:22;99505.78;;;13.28;43.04
11172;BME280;5642;50.830;12.082;2023-03-20T00:14:50;99509.63;;;13.20;43.09
11172;BME280;5642;50.830;12.082;2023-03-20T00:17:19;99505.06;;;13.23;43.18
11172;BME280;5642;50.830;12.082;2023-03-20T00:19:47;99462.38;;;12.95;43.05
11172;BME280;5642;50.830;12.082;2023-03-20T00:22:14;99510.22;;;13.26;43.14
11172;BME280;5642;50.830;12.082;2023-03-20T00:24:41;99501.59;;;13.23;43.19
11172;BME280;5642;50.830;12.082;2023-03-20T00:27:13;99474.06;;;13.10;43.23
11172;BME280;5642;50.830;12.082;2023-03-20T00:29:43;99462.00;;;13.04;42.86
11172;BME280;5642;50.830;12.082;2023-03-20T00:32:11;99509.06;;;13.33;43.01
11172;BME280;5642;50.830;12.082;2023-03-20T00:34:39;99496.22;;;13.26;43.16
11172;BME280;5642;50.830;12.082;2023-03-20T00:37:06;99504.91;;;13.28;43.37
11172;BME280;5642;50.830;12.082;2023-03-20T00:39:33;99480.22;;;13.09;43.58
11172;BME280;5642;50.830;12.082;2023-03-20T00:42:05;99504.22;;;13.23;42.98
11172;BME280;5642;50.830;12.082;2023-03-20T00:44:47;99482.56;;;13.16;43.21
11172;BME280;5642;50.830;12.082;2023-03-20T00:47:20;99497.13;;;13.25;43.43
11172;BME280;5642;50.830;12.082;2023-03-20T00:49:52;99496.28;;;13.24;43.68
11172;BME280;5642;50.830;12.082;2023-03-20T00:52:21;99502.28;;;13.28;43.29
11172;BME280;5642;50.830;12.082;2023-03-20T00:54:48;99480.69;;;13.20;43.36
11172;BME280;5642;50.830;12.082;2023-03-20T00:57:30;99501.88;;;13.37;43.29
11172;BME280;5642;50.830;12.082;2023-03-20T01:00:06;99493.00;;;13.40;43.22
11172;BME280;5642;50.830;12.082;2023-03-20T01:02:32;99495.59;;;13.41;43.23
11172;BME280;5642;50.830;12.082;2023-03-20T01:04:59;99493.81;;;13.42;43.24
11172;BME280;5642;50.830;12.082;2023-03-20T01:07:28;99486.94;;;13.38;43.21
11172;BME280;5642;50.830;12.082;2023-03-20T01:09:55;99487.75;;;13.40;43.32
11172;BME280;5642;50.830;12.082;2023-03-20T01:12:23;99503.34;;;13.44;43.29
11172;BME280;5642;50.830;12.082;2023-03-20T01:14:56;99496.44;;;13.42;43.52
11172;BME280;5642;50.830;12.082;2023-03-20T01:17:25;99459.91;;;13.14;43.41
11172;BME280;5642;50.830;12.082;2023-03-20T01:19:52;99467.03;;;13.10;43.44
11172;BME280;5642;50.830;12.082;2023-03-20T01:22:19;99445.78;;;12.93;43.61
11172;BME280;5642;50.830;12.082;2023-03-20T01:24:46;99460.81;;;12.91;43.62
11172;BME280;5642;50.830;12.082;2023-03-20T01:27:18;99484.78;;;13.05;43.80
11172;BME280;5642;50.830;12.082;2023-03-20T01:29:45;99485.06;;;12.98;43.78
11172;BME280;5642;50.830;12.082;2023-03-20T01:32:17;99489.78;;;12.89;43.76
11172;BME280;5642;50.830;12.082;2023-03-20T01:34:45;99441.47;;;12.48;43.77
11172;BME280;5642;50.830;12.082;2023-03-20T01:37:17;99512.06;;;12.79;44.02
11172;BME280;5642;50.830;12.082;2023-03-20T01:39:48;99510.78;;;12.68;43.97
11172;BME280;5642;50.830;12.082;2023-03-20T01:42:24;99500.03;;;12.50;44.11
11172;BME280;5642;50.830;12.082;2023-03-20T01:44:53;99517.47;;;12.53;44.59
11172;BME280;5642;50.830;12.082;2023-03-20T01:47:23;99470.69;;;12.16;44.35
11172;BME280;5642;50.830;12.082;2023-03-20T01:50:25;99524.91;;;12.42;44.64
11172;BME280;5642;50.830;12.082;2023-03-20T01:53:06;99498.63;;;12.19;44.18
11172;BME280;5642;50.830;12.082;2023-03-20T01:55:34;99530.78;;;12.25;44.30
11172;BME280;5642;50.830;12.082;2023-03-20T01:58:06;99529.97;;;12.23;44.55
11172;BME280;5642;50.830;12.082;2023-03-20T02:00:34;99483.84;;;11.93;44.42
11172;BME280;5642;50.830;12.082;2023-03-20T02:03:01;99507.09;;;12.02;44.33
11172;BME280;5642;50.830;12.082;2023-03-20T02:05:29;99491.22;;;11.82;44.24
11172;BME280;5642;50.830;12.082;2023-03-20T02:08:30;99494.00;;;11.77;44.60
11172;BME280;5642;50.830;12.082;2023-03-20T02:10:59;99514.84;;;11.82;44.86
11172;BME280;5642;50.830;12.082;2023-03-20T02:13:28;99517.47;;;11.82;44.49
11172;BME280;5642;50.830;12.082;2023-03-20T02:16:06;99515.00;;;11.77;44.80
11172;BME280;5642;50.830;12.082;2023-03-20T02:18:34;99516.34;;;11.62;44.87
11172;BME280;5642;50.830;12.082;2023-03-20T02:21:25;99527.75;;;11.61;44.97
11172;BME280;5642;50.830;12.082;2023-03-20T02:38:14;99533.66;;;11.42;45.00
11172;BME280;5642;50.830;12.082;2023-03-20T02:49:30;99530.59;;;11.29;44.95
11172;BME280;5642;50.830;12.082;2023-03-20T02:52:14;99534.38;;;11.20;44.92
11172;BME280;5642;50.830;12.082;2023-03-20T02:55:09;99528.31;;;11.18;45.06
11172;BME280;5642;50.830;12.082;2023-03-20T02:57:46;99524.06;;;11.14;44.84
11172;BME280;5642;50.830;12.082;2023-03-20T03:00:49;99526.03;;;11.08;45.26
11172;BME280;5642;50.830;12.082;2023-03-20T03:03:48;99527.13;;;11.01;45.16
11172;BME280;5642;50.830;12.082;2023-03-20T03:06:25;99528.06;;;10.98;45.34
11172;BME280;5642;50.830;12.082;2023-03-20T03:09:00;99519.56;;;10.91;45.64
11172;BME280;5642;50.830;12.082;2023-03-20T03:11:27;99476.00;;;10.59;45.42
11172;BME280;5642;50.830;12.082;2023-03-20T03:13:54;99514.03;;;10.73;45.39
11172;BME280;5642;50.830;12.082;2023-03-20T03:16:26;99530.41;;;10.79;45.44
11172;BME280;5642;50.830;12.082;2023-03-20T03:19:08;99483.41;;;10.45;45.50
11172;BME280;5642;50.830;12.082;2023-03-20T03:21:36;99533.34;;;10.69;45.58
11172;BME280;5642;50.830;12.082;2023-03-20T03:24:05;99533.56;;;10.61;45.53
11172;BME280;5642;50.830;12.082;2023-03-20T03:26:36;99477.19;;;10.20;45.48
11172;BME280;5642;50.830;12.082;2023-03-20T03:29:13;99509.09;;;10.33;45.92
11172;BME280;5642;50.830;12.082;2023-03-20T03:31:45;99517.84;;;10.32;45.62
11172;BME280;5642;50.830;12.082;2023-03-20T03:34:16;99476.66;;;10.07;45.44
11172;BME280;5642;50.830;12.082;2023-03-20T03:36:51;99537.00;;;10.34;45.66
11172;BME280;5642;50.830;12.082;2023-03-20T03:39:40;99541.44;;;10.30;45.56
11172;BME280;5642;50.830;12.082;2023-03-20T03:42:38;99533.06;;;10.19;45.49
11172;BME280;5642;50.830;12.082;2023-03-20T03:45:15;99498.72;;;9.97;45.71
11172;BME280;5642;50.830;12.082;2023-03-20T03:47:57;99496.28;;;9.91;45.86
11172;BME280;5642;50.830;12.082;2023-03-20T03:50:39;99534.94;;;10.12;45.86
11172;BME280;5642;50.830;12.082;2023-03-20T03:53:19;99539.41;;;10.09;45.76
11172;BME280;5642;50.830;12.082;2023-03-20T03:55:52;99513.59;;;9.95;45.89
11172;BME280;5642;50.830;12.082;2023-03-20T03:58:49;99505.06;;;9.89;45.51
11172;BME280;5642;50.830;12.082;2023-03-20T04:01:19;99544.72;;;10.06;45.63
11172;BME280;5642;50.830;12.082;2023-03-20T04:03:56;99539.50;;;10.06;45.75
11172;BME280;5642;50.830;12.082;2023-03-20T04:06:25;99540.34;;;10.06;45.92
11172;BME280;5642;50.830;12.082;2023-03-20T04:08:53;99492.25;;;9.79;45.57
11172;BME280;5642;50.830;12.082;2023-03-20T04:11:29;99547.19;;;10.12;45.67
11172;BME280;5642;50.830;12.082;2023-03-20T04:13:55;99540.09;;;10.17;45.70
11172;BME280;5642;50.830;12.082;2023-03-20T04:16:23;99534.63;;;10.25;45.47
11172;BME280;5642;50.830;12.082;2023-03-20T04:18:51;99519.97;;;10.19;45.39
11172;BME280;5642;50.830;12.082;2023-03-20T04:21:18;99512.91;;;10.23;45.37
11172;BME280;5642;50.830;12.082;2023-03-20T04:23:45;99550.47;;;10.51;45.45
11172;BME280;5642;50.830;12.082;2023-03-20T04:26:12;99522.78;;;10.42;45.23
11172;BME280;5642;50.830;12.082;2023-03-20T04:28:38;99557.78;;;10.69;45.29
11172;BME280;5642;50.830;12.082;2023-03-20T04:31:04;99507.84;;;10.46;45.11
11172;BME280;5642;50.830;12.082;2023-03-20T04:33:30;99567.69;;;10.87;45.32
11172;BME280;5642;50.830;12.082;2023-03-20T04:35:57;99498.69;;;10.59;45.08
11172;BME280;5642;50.830;12.082;2023-03-20T04:38:23;99567.97;;;11.08;45.43
11172;BME280;5642;50.830;12.082;2023-03-20T04:40:49;99569.53;;;11.13;45.17
11172;BME280;5642;50.830;12.082;2023-03-20T04:43:16;99575.19;;;11.29;45.33
11172;BME280;5642;50.830;12.082;2023-03-20T04:45:42;99549.19;;;11.21;45.07
11172;BME280;5642;50.830;12.082;2023-03-20T04:48:08;99575.47;;;11.46;45.07
11172;BME280;5642;50.830;12.082;2023-03-20T04:50:35;99580.50;;;11.52;44.99
11172;BME280;5642;50.830;12.082;2023-03-20T04:53:01;99535.84;;;11.29;45.33
11172;BME280;5642;50.830;12.082;2023-03-20T04:55:27;99585.69;;;11.55;45.21
11172;BME280;5642;50.830;12.082;2023-03-20T04:57:53;99541.78;;;11.34;45.24
11172;BME280;5642;50.830;12.082;2023-03-20T05:00:19;99590.03;;;11.56;45.02
11172;BME280;5642;50.830;12.082;2023-03-20T05:02:47;99574.41;;;11.52;45.09
11172;BME280;5642;50.830;12.082;2023-03-20T05:05:15;99567.66;;;11.45;45.30
11172;BME280;5642;50.830;12.082;2023-03-20T05:07:41;99555.72;;;11.36;45.48
11172;BME280;5642;50.830;12.082;2023-03-20T05:10:07;99554.72;;;11.38;45.64
11172;BME280;5642;50.830;12.082;2023-03-20T05:12:34;99551.41;;;11.33;45.61
11172;BME280;5642;50.830;12.082;2023-03-20T05:15:00;99531.28;;;11.34;45.28
11172;BME280;5642;50.830;12.082;2023-03-20T05:17:28;99573.03;;;11.66;45.27
11172;BME280;5642;50.830;12.082;2023-03-20T05:19:55;99550.63;;;11.58;45.33
11172;BME280;5642;50.830;12.082;2023-03-20T05:22:22;99544.41;;;11.60;45.14
11172;BME280;5642;50.830;12.082;2023-03-20T05:24:50;99501.09;;;11.49;44.97
11172;BME280;5642;50.830;12.082;2023-03-20T05:27:17;99574.63;;;11.98;44.96
11172;BME280;5642;50.830;12.082;2023-03-20T05:29:44;99541.06;;;11.82;45.11
11172;BME280;5642;50.830;12.082;2023-03-20T05:32:10;99601.00;;;12.20;45.12
11172;BME280;5642;50.830;12.082;2023-03-20T05:34:37;99587.00;;;12.20;45.17
11172;BME280;5642;50.830;12.082;2023-03-20T05:37:03;99546.63;;;11.99;44.94
11172;BME280;5642;50.830;12.082;2023-03-20T05:39:30;99566.28;;;12.12;45.14
11172;BME280;5642;50.830;12.082;2023-03-20T05:41:56;99561.28;;;12.04;45.03
11172;BME280;5642;50.830;12.082;2023-03-20T05:44:24;99571.78;;;12.04;45.28
11172;BME280;5642;50.830;12.082;2023-03-20T05:46:51;99594.97;;;12.16;45.15
11172;BME280;5642;50.830;12.082;2023-03-20T05:49:17;99585.81;;;12.03;45.48
11172;BME280;5642;50.830;12.082;2023-03-20T05:51:44;99578.06;;;12.00;45.40
11172;BME280;5642;50.830;12.082;2023-03-20T05:54:10;99535.94;;;11.79;45.50
11172;BME280;5642;50.830;12.082;2023-03-20T05:56:40;99580.13;;;12.15;45.34
11172;BME280;5642;50.830;12.082;2023-03-20T05:59:07;99540.53;;;11.97;45.49
11172;BME280;5642;50.830;12.082;2023-03-20T06:01:33;99537.66;;;12.04;45.18
11172;BME280;5642;50.830;12.082;2023-03-20T06:03:59;99566.41;;;12.32;45.19
11172;BME280;5642;50.830;12.082;2023-03-20T06:06:26;99545.41;;;12.32;45.08
11172;BME280;5642;50.830;12.082;2023-03-20T06:08:55;99570.06;;;12.51;45.06
11172;BME280;5642;50.830;12.082;2023-03-20T06:11:22;99565.41;;;12.60;44.99
11172;BME280;5642;50.830;12.082;2023-03-20T06:13:48;99600.13;;;12.91;45.24
11172;BME280;5642;50.830;12.082;2023-03-20T06:16:18;99578.97;;;12.94;44.97
11172;BME280;5642;50.830;12.082;2023-03-20T06:18:44;99541.97;;;12.77;45.06
11172;BME280;5642;50.830;12.082;2023-03-20T06:21:11;99527.94;;;12.78;44.87
11172;BME280;5642;50.830;12.082;2023-03-20T06:23:43;99539.13;;;13.05;44.91
11172;BME280;5642;50.830;12.082;2023-03-20T06:26:10;99533.34;;;13.18;44.46
11172;BME280;5642;50.830;12.082;2023-03-20T06:28:36;99526.69;;;13.31;44.44
11172;BME280;5642;50.830;12.082;2023-03-20T06:31:04;99599.78;;;13.87;44.29
11172;BME280;5642;50.830;12.082;2023-03-20T06:33:34;99589.25;;;13.87;44.28
11172;BME280;5642;50.830;12.082;2023-03-20T06:36:03;99581.91;;;13.95;44.37
11172;BME280;5642;50.830;12.082;2023-03-20T06:38:31;99600.66;;;14.08;44.42
11172;BME280;5642;50.830;12.082;2023-03-20T06:41:04;99581.25;;;14.10;44.36
11172;BME280;5642;50.830;12.082;2023-03-20T06:43:32;99539.66;;;13.98;44.47
11172;BME280;5642;50.830;12.082;2023-03-20T06:45:59;99572.53;;;14.29;44.31
11172;BME280;5642;50.830;12.082;2023-03-20T06:48:25;99606.75;;;14.50;44.20
11172;BME280;5642;50.830;12.082;2023-03-20T06:50:51;99546.47;;;14.23;44.45
11172;BME280;5642;50.830;12.082;2023-03-20T06:53:21;99545.59;;;14.22;44.35
11172;BME280;5642;50.830;12.082;2023-03-20T06:55:49;99551.34;;;14.32;44.23
11172;BME280;5642;50.830;12.082;2023-03-20T06:58:20;99560.94;;;14.53;44.25
11172;BME280;5642;50.830;12.082;2023-03-20T07:00:49;99558.19;;;14.56;44.31
11172;BME280;5642;50.830;12.082;2023-03-20T07:03:15;99562.72;;;14.71;44.10
11172;BME280;5642;50.830;12.082;2023-03-20T07:05:41;99572.44;;;14.89;43.94
11172;BME280;5642;50.830;12.082;2023-03-20T07:08:09;99540.88;;;14.88;43.99
11172;BME280;5642;50.830;12.082;2023-03-20T07:10:36;99541.78;;;15.06;43.93
11172;BME280;5642;50.830;12.082;2023-03-20T07:13:03;99587.22;;;15.48;43.82
11172;BME280;5642;50.830;12.082;2023-03-20T07:15:32;99574.63;;;15.55;43.65
11172;BME280;5642;50.830;12.082;2023-03-20T07:17:59;99582.22;;;15.78;43.55
11172;BME280;5642;50.830;12.082;2023-03-20T07:20:26;99554.34;;;15.73;43.39
11172;BME280;5642;50.830;12.082;2023-03-20T07:23:01;99558.72;;;15.91;43.43
11172;BME280;5642;50.830;12.082;2023-03-20T07:25:28;99558.22;;;16.00;43.45
11172;BME280;5642;50.830;12.082;2023-03-20T07:27:56;99569.34;;;16.24;43.21
11172;BME280;5642;50.830;12.082;2023-03-20T07:30:25;99603.97;;;16.52;43.15
11172;BME280;5642;50.830;12.082;2023-03-20T07:32:52;99549.56;;;16.31;43.24
11172;BME280;5642;50.830;12.082;2023-03-20T07:35:19;99604.31;;;16.79;43.02
11172;BME280;5642;50.830;12.082;2023-03-20T07:37:46;99625.19;;;17.01;43.15
11172;BME280;5642;50.830;12.082;2023-03-20T07:40:12;99618.94;;;17.02;42.92
11172;BME280;5642;50.830;12.082;2023-03-20T07:42:40;99550.38;;;16.66;43.25
11172;BME280;5642;50.830;12.082;2023-03-20T07:45:08;99605.97;;;16.97;43.07
11172;BME280;5642;50.830;12.082;2023-03-20T07:47:38;99570.41;;;16.70;43.24
11172;BME280;5642;50.830;12.082;2023-03-20T07:50:05;99610.75;;;16.91;43.07
11172;BME280;5642;50.830;12.082;2023-03-20T07:52:31;99598.81;;;16.83;43.35
11172;BME280;5642;50.830;12.082;2023-03-20T07:54:59;99608.25;;;16.88;43.20
11172;BME280;5642;50.830;12.082;2023-03-20T07:57:30;99585.97;;;16.76;43.37
11172;BME280;5642;50.830;12.082;2023-03-20T07:59:56;99571.13;;;16.56;43.51
11172;BME280;5642;50.830;12.082;2023-03-20T08:02:23;99569.66;;;16.51;43.74
11172;BME280;5642;50.830;12.082;2023-03-20T08:04:49;99618.25;;;16.82;43.80
11172;BME280;5642;50.830;12.082;2023-03-20T08:07:15;99549.69;;;16.45;43.67
11172;BME280;5642;50.830;12.082;2023-03-20T08:09:42;99608.94;;;16.91;43.85
11172;BME280;5642;50.830;12.082;2023-03-20T08:12:09;99599.13;;;16.93;43.84
11172;BME280;5642;50.830;12.082;2023-03-20T08:14:35;99618.78;;;17.20;43.79
11172;BME280;5642;50.830;12.082;2023-03-20T08:17:06;99547.84;;;16.96;43.31
11172;BME280;5642;50.830;12.082;2023-03-20T08:19:37;99612.81;;;17.48;43.59
11172;BME280;5642;50.830;12.082;2023-03-20T08:22:03;99578.06;;;17.39;43.16
11172;BME280;5642;50.830;12.082;2023-03-20T08:24:31;99577.44;;;17.49;43.30
11172;BME280;5642;50.830;12.082;2023-03-20T08:27:00;99560.81;;;17.47;43.14
11172;BME280;5642;50.830;12.082;2023-03-20T08:29:26;99605.50;;;17.83;43.09
11172;BME280;5642;50.830;12.082;2023-03-20T08:31:54;99591.59;;;17.80;42.93
11172;BME280;5642;50.830;12.082;2023-03-20T08:34:24;99611.63;;;17.99;43.14
11172;BME280;5642;50.830;12.082;2023-03-20T08:36:52;99562.75;;;17.75;43.02
11172;BME280;5642;50.830;12.082;2023-03-20T08:39:22;99570.03;;;17.86;42.96
11172;BME280;5642;50.830;12.082;2023-03-20T08:41:50;99584.56;;;17.94;43.03
11172;BME280;5642;50.830;12.082;2023-03-20T08:44:17;99569.75;;;17.90;42.99
11172;BME280;5642;50.830;12.082;2023-03-20T08:46:43;99552.28;;;17.88;43.03
11172;BME280;5642;50.830;12.082;2023-03-20T08:49:11;99553.28;;;17.85;43.02
11172;BME280;5642;50.830;12.082;2023-03-20T08:51:37;99597.00;;;18.08;43.07
11172;BME280;5642;50.830;12.082;2023-03-20T08:54:04;99616.34;;;18.24;42.92
11172;BME280;5642;50.830;12.082;2023-03-20T08:56:30;99577.09;;;18.01;42.81
11172;BME280;5642;50.830;12.082;2023-03-20T08:58:56;99612.78;;;18.39;42.71
11172;BME280;5642;50.830;12.082;2023-03-20T09:01:23;99594.59;;;18.48;42.69
11172;BME280;5642;50.830;12.082;2023-03-20T09:03:49;99572.16;;;18.53;42.47
11172;BME280;5642;50.830;12.082;2023-03-20T09:06:17;99573.06;;;18.68;42.38
11172;BME280;5642;50.830;12.082;2023-03-20T09:08:44;99593.31;;;18.83;42.53
11172;BME280;5642;50.830;12.082;2023-03-20T09:11:11;99595.31;;;18.94;42.40
11172;BME280;5642;50.830;12.082;2023-03-20T09:13:40;99560.25;;;18.74;42.27
11172;BME280;5642;50.830;12.082;2023-03-20T09:16:07;99623.34;;;19.12;42.21
11172;BME280;5642;50.830;12.082;2023-03-20T09:18:33;99614.91;;;19.05;42.33
11172;BME280;5642;50.830;12.082;2023-03-20T09:21:03;99583.28;;;18.88;42.47
11172;BME280;5642;50.830;12.082;2023-03-20T09:23:30;99583.47;;;18.85;42.51
11172;BME280;5642;50.830;12.082;2023-03-20T09:25:57;99578.81;;;18.89;42.34
11172;BME280;5642;50.830;12.082;2023-03-20T09:28:30;99627.03;;;19.24;42.62
11172;BME280;5642;50.830;12.082;2023-03-20T09:31:15;99635.38;;;19.32;42.34
11172;BME280;5642;50.830;12.082;2023-03-20T09:33:45;99592.06;;;19.17;42.33
11172;BME280;5642;50.830;12.082;2023-03-20T09:36:14;99630.03;;;19.46;42.19
11172;BME280;5642;50.830;12.082;2023-03-20T09:39:30;99632.88;;;19.43;42.19
11172;BME280;5642;50.830;12.082;2023-03-20T09:42:40;99582.16;;;19.19;42.13
11172;BME280;5642;50.830;12.082;2023-03-20T09:45:36;99636.88;;;19.50;42.55
11172;BME280;5642;50.830;12.082;2023-03-20T09:48:18;99619.69;;;19.55;42.50
11172;BME280;5642;50.830;12.082;2023-03-20T09:51:07;99633.69;;;19.72;42.16
11172;BME280;5642;50.830;12.082;2023-03-20T09:53:58;99615.94;;;19.72;42.12
11172;BME280;5642;50.830;12.082;2023-03-20T09:56:28;99633.53;;;19.87;41.92
11172;BME280;5642;50.830;12.082;2023-03-20T09:59:00;99633.47;;;20.02;42.03
11172;BME280;5642;50.830;12.082;2023-03-20T10:01:39;99636.06;;;20.16;41.94
11172;BME280;5642;50.830;12.082;2023-03-20T10:04:13;99632.75;;;20.25;42.09
11172;BME280;5642;50.830;12.082;2023-03-20T10:06:40;99615.97;;;20.24;41.88
11172;BME280;5642;50.830;12.082;2023-03-20T10:09:20;99637.63;;;20.45;41.53
11172;BME280;5642;50.830;12.082;2023-03-20T10:14:50;99610.47;;;20.40;41.77
11172;BME280;5642;50.830;12.082;2023-03-20T10:19:58;99628.38;;;20.38;41.44
11172;BME280;5642;50.830;12.082;2023-03-20T10:28:10;99635.81;;;20.19;41.77
11172;BME280;5642;50.830;12.082;2023-03-20T10:42:21;99615.34;;;20.46;41.21
11172;BME280;5642;50.830;12.082;2023-03-20T10:45:39;99613.34;;;20.62;41.49
11172;BME280;5642;50.830;12.082;2023-03-20T10:47:48;99613.34;;;20.88;41.08
11172;BME280;5642;50.830;12.082;2023-03-20T10:50:18;99606.84;;;21.17;41.11
11172;BME280;5642;50.830;12.082;2023-03-20T10:52:50;99606.09;;;21.52;40.89
11172;BME280;5642;50.830;12.082;2023-03-20T10:55:21;99593.03;;;21.83;40.84
11172;BME280;5642;50.830;12.082;2023-03-20T10:57:57;99587.34;;;22.12;40.44
11172;BME280;5642;50.830;12.082;2023-03-20T11:00:27;99602.09;;;22.40;40.58
11172;BME280;5642;50.830;12.082;2023-03-20T11:02:53;99590.19;;;22.33;40.52
11172;BME280;5642;50.830;12.082;2023-03-20T11:05:28;99589.31;;;22.21;40.33
11172;BME280;5642;50.830;12.082;2023-03-20T11:08:13;99600.56;;;22.13;40.50
11172;BME280;5642;50.830;12.082;2023-03-20T11:10:42;99601.72;;;21.98;40.45
11172;BME280;5642;50.830;12.082;2023-03-20T11:13:38;99603.22;;;21.89;40.54
11172;BME280;5642;50.830;12.082;2023-03-20T11:16:24;99596.53;;;21.84;40.69
11172;BME280;5642;50.830;12.082;2023-03-20T11:18:52;99600.28;;;21.81;40.79
11172;BME280;5642;50.830;12.082;2023-03-20T11:21:25;99576.34;;;21.69;40.82
11172;BME280;5642;50.830;12.082;2023-03-20T11:23:53;99597.69;;;21.69;40.55
11172;BME280;5642;50.830;12.082;2023-03-20T11:26:40;99584.22;;;21.46;40.60
11172;BME280;5642;50.830;12.082;2023-03-20T11:29:15;99595.91;;;21.33;40.81
11172;BME280;5642;50.830;12.082;2023-03-20T11:31:44;99601.16;;;21.09;40.83
11172;BME280;5642;50.830;12.082;2023-03-20T11:34:19;99603.31;;;20.91;40.95
11172;BME280;5642;50.830;12.082;2023-03-20T11:37:00;99605.78;;;20.69;40.89
11172;BME280;5642;50.830;12.082;2023-03-20T11:39:30;99594.63;;;20.51;41.06
11172;BME280;5642;50.830;12.082;2023-03-20T11:41:59;99591.97;;;20.39;41.42
11172;BME280;5642;50.830;12.082;2023-03-20T11:44:32;99604.00;;;20.44;41.24
11172;BME280;5642;50.830;12.082;2023-03-20T11:47:11;99586.06;;;20.21;41.32
11172;BME280;5642;50.830;12.082;2023-03-20T11:49:45;99604.06;;;20.30;41.10
11172;BME280;5642;50.830;12.082;2023-03-20T11:52:19;99600.41;;;20.18;41.25
11172;BME280;5642;50.830;12.082;2023-03-20T11:54:51;99601.13;;;20.08;41.22
11172;BME280;5642;50.830;12.082;2023-03-20T12:00:03;99586.63;;;19.86;41.24
11172;BME280;5642;50.830;12.082;2023-03-20T12:02:30;99582.00;;;19.76;41.47
11172;BME280;5642;50.830;12.082;2023-03-20T12:05:00;99585.06;;;19.70;41.39
11172;BME280;5642;50.830;12.082;2023-03-20T12:07:32;99592.41;;;19.66;41.55
11172;BME280;5642;50.830;12.082;2023-03-20T12:10:09;99579.63;;;19.59;41.46
11172;BME280;5642;50.830;12.082;2023-03-20T12:12:58;99576.13;;;19.44;41.39
11172;BME280;5642;50.830;12.082;2023-03-20T12:15:34;99581.44;;;19.44;41.34
11172;BME280;5642;50.830;12.082;2023-03-20T12:18:09;99592.56;;;19.36;41.58
11172;BME280;5642;50.830;12.082;2023-03-20T12:20:53;99571.47;;;19.06;41.49
11172;BME280;5642;50.830;12.082;2023-03-20T12:23:39;99584.38;;;18.98;41.66
11172;BME280;5642;50.830;12.082;2023-03-20T12:29:26;99596.91;;;18.54;41.89
11172;BME280;5642;50.830;12.082;2023-03-20T12:32:02;99587.38;;;18.35;42.06
11172;BME280;5642;50.830;12.082;2023-03-20T12:34:37;99592.00;;;18.18;42.20
11172;BME280;5642;50.830;12.082;2023-03-20T12:37:08;99598.13;;;18.04;42.29
11172;BME280;5642;50.830;12.082;2023-03-20T12:39:47;99593.44;;;17.93;42.12
11172;BME280;5642;50.830;12.082;2023-03-20T12:44:54;99584.09;;;17.72;42.49
11172;BME280;5642;50.830;12.082;2023-03-20T12:47:53;99585.47;;;17.64;42.40
11172;BME280;5642;50.830;12.082;2023-03-20T12:50:38;99589.81;;;17.49;42.77
11172;BME280;5642;50.830;12.082;2023-03-20T13:01:30;99584.63;;;17.16;42.99
11172;BME280;5642;50.830;12.082;2023-03-20T13:07:04;99583.25;;;16.93;43.34
11172;BME280;5642;50.830;12.082;2023-03-20T13:09:51;99579.31;;;16.84;43.43
11172;BME280;5642;50.830;12.082;2023-03-20T13:12:31;99580.69;;;16.76;43.53
11172;BME280;5642;50.830;12.082;2023-03-20T13:15:16;99576.56;;;16.70;43.50
11172;BME280;5642;50.830;12.082;2023-03-20T13:23:32;99568.22;;;16.78;43.52
11172;BME280;5642;50.830;12.082;2023-03-20T13:29:11;99563.53;;;16.99;43.34
11172;BME280;5642;50.830;12.082;2023-03-20T13:39:59;99558.84;;;17.19;43.34
11172;BME280;5642;50.830;12.082;2023-03-20T13:42:36;99565.75;;;17.22;43.19
11172;BME280;5642;50.830;12.082;2023-03-20T13:45:08;99540.41;;;17.18;43.25
11172;BME280;5642;50.830;12.082;2023-03-20T13:47:43;99529.91;;;17.16;43.23
11172;BME280;5642;50.830;12.082;2023-03-20T13:52:48;99532.41;;;17.04;43.37
11172;BME280;5642;50.830;12.082;2023-03-20T13:55:44;99558.53;;;17.10;43.64
11172;BME280;5642;50.830;12.082;2023-03-20T14:01:28;99555.84;;;16.78;44.05
11172;BME280;5642;50.830;12.082;2023-03-20T14:03:57;99543.44;;;16.63;44.11
11172;BME280;5642;50.830;12.082;2023-03-20T14:08:58;99552.59;;;16.56;43.92
11172;BME280;5642;50.830;12.082;2023-03-20T14:11:29;99527.69;;;16.44;44.11
11172;BME280;5642;50.830;12.082;2023-03-20T14:14:14;99537.47;;;16.42;44.00
11172;BME280;5642;50.830;12.082;2023-03-20T14:16:43;99541.38;;;16.35;44.23
11172;BME280;5642;50.830;12.082;2023-03-20T14:19:19;99542.50;;;16.31;44.26
11172;BME280;5642;50.830;12.082;2023-03-20T14:21:47;99543.75;;;16.24;44.26
11172;BME280;5642;50.830;12.082;2023-03-20T14:24:15;99540.41;;;16.21;44.33
11172;BME280;5642;50.830;12.082;2023-03-20T14:26:54;99544.84;;;16.20;44.38
11172;BME280;5642;50.830;12.082;2023-03-20T14:29:36;99541.38;;;16.20;44.49
11172;BME280;5642;50.830;12.082;2023-03-20T14:34:46;99545.28;;;16.28;44.42
11172;BME280;5642;50.830;12.082;2023-03-20T14:37:56;99533.78;;;16.29;44.28
11172;BME280;5642;50.830;12.082;2023-03-20T14:40:28;99531.59;;;16.37;44.36
11172;BME280;5642;50.830;12.082;2023-03-20T14:45:51;99516.34;;;16.42;44.21
11172;BME280;5642;50.830;12.082;2023-03-20T14:48:46;99527.88;;;16.57;44.34
11172;BME280;5642;50.830;12.082;2023-03-20T14:51:30;99531.19;;;16.62;44.30
11172;BME280;5642;50.830;12.082;2023-03-20T14:56:50;99523.34;;;16.76;44.13
11172;BME280;5642;50.830;12.082;2023-03-20T14:59:18;99516.59;;;16.87;44.23
11172;BME280;5642;50.830;12.082;2023-03-20T15:07:16;99508.22;;;17.10;44.05
11172;BME280;5642;50.830;12.082;2023-03-20T15:09:50;99513.53;;;17.10;43.90
11172;BME280;5642;50.830;12.082;2023-03-20T15:12:19;99513.75;;;17.05;44.10